Terminal Aerodrome Forecast
Issued by NWS Blacksburg, VA

Current Version | Previous Version | Graphics & Text | Print | Product List | Glossary On
Versions: 1 2 3 4 5 6 7 8 9 10 11 12 13 14 15 16 17 18 19 20
000
FTUS41 KRNK 181738
TAFBLF
TAF
KBLF 181738Z 1818/1918 24014G24KT P6SM SCT060 BKN200
     FM190100 20014G22KT P6SM OVC035
      TEMPO 1901/1902 4SM -SHRA OVC025
     FM190400 23015G24KT 4SM -SHRA OVC025
     FM190800 29016G27KT P6SM OVC008
     FM191300 29017KT P6SM OVC015=

USA.gov is the U.S. government's official web portal to all federal, state and local government web resources and services.